Time;durP1;ratioP1;P1;durP2;ratioP2;P2;SDS_P1;SDS_P2;PMS_P1;PMS_P2;Temp;Humidity;BMP_temperature;BMP_pressure;BME280_temperature;BME280_humidity;BME280_pressure;Samples;Min_cycle;Max_cycle;Signal;HPM_P1;HPM_P2
2024/04/15 00:00:37;;;;;;;15.25;5.50;;;8.90;77.70;;;;;;4774363;30;20507;-74
2024/04/15 00:03:04;;;;;;;16.10;5.20;;;8.80;77.90;;;;;;4754853;30;20496;-74
2024/04/15 00:05:29;;;;;;;17.20;4.72;;;8.70;78.00;;;;;;4759769;30;20095;-74
2024/04/15 00:07:55;;;;;;;12.55;4.70;;;8.70;78.10;;;;;;4751597;30;20063;-74
2024/04/15 00:10:21;;;;;;;19.05;4.50;;;8.60;78.10;;;;;;4765997;30;20051;-74
2024/04/15 00:12:49;;;;;;;11.18;3.78;;;8.60;78.20;;;;;;4756192;30;20099;-75
2024/04/15 00:15:14;;;;;;;13.50;4.15;;;8.60;78.30;;;;;;4759157;30;20070;-75
2024/04/15 00:17:40;;;;;;;18.67;4.30;;;8.50;78.40;;;;;;4766263;30;20140;-75
2024/04/15 00:20:06;;;;;;;14.32;3.95;;;8.50;78.30;;;;;;4754331;30;20397;-75
2024/04/15 00:22:31;;;;;;;12.18;4.40;;;8.50;78.40;;;;;;4753411;30;20523;-75
2024/04/15 00:24:57;;;;;;;19.25;4.65;;;8.40;78.40;;;;;;4768963;30;20421;-75
2024/04/15 00:27:23;;;;;;;17.40;4.57;;;8.50;78.40;;;;;;4766733;30;20064;-75
2024/04/15 00:29:49;;;;;;;13.00;4.38;;;8.40;78.50;;;;;;4750879;30;20052;-75
2024/04/15 00:32:14;;;;;;;12.57;4.50;;;8.40;78.40;;;;;;4751112;30;20086;-74
2024/04/15 00:34:40;;;;;;;12.45;3.95;;;8.40;78.40;;;;;;4751034;30;20258;-75
2024/04/15 00:37:06;;;;;;;18.20;4.70;;;8.40;78.40;;;;;;4740307;30;20059;-75
2024/04/15 00:39:32;;;;;;;13.95;3.97;;;8.30;78.40;;;;;;4750518;30;20060;-74
2024/04/15 00:41:58;;;;;;;12.20;4.25;;;8.30;78.40;;;;;;4741179;30;20056;-75
2024/04/15 00:44:33;;;;;;;17.00;4.10;;;8.30;78.50;;;;;;4761268;30;20064;-75
2024/04/15 00:47:03;;;;;;;13.45;4.00;;;8.30;78.50;;;;;;4766374;30;20125;-75
2024/04/15 00:49:32;;;;;;;12.98;3.80;;;8.30;78.50;;;;;;4740561;30;20488;-74
2024/04/15 00:51:59;;;;;;;17.35;4.90;;;8.30;78.50;;;;;;4765993;30;20113;-75
2024/04/15 00:54:27;;;;;;;15.00;4.28;;;8.20;78.50;;;;;;4743949;30;20059;-75
2024/04/15 00:56:52;;;;;;;11.38;4.05;;;8.20;78.60;;;;;;4755190;30;20462;-75
2024/04/15 00:59:18;;;;;;;12.82;4.35;;;8.20;78.60;;;;;;4750205;30;20052;-75
2024/04/15 01:01:44;;;;;;;13.35;4.03;;;8.20;78.60;;;;;;4761611;30;20109;-75
2024/04/15 01:04:10;;;;;;;11.73;3.45;;;8.20;78.60;;;;;;4761094;30;20059;-75
2024/04/15 01:06:36;;;;;;;12.18;4.10;;;8.10;78.50;;;;;;4754194;30;20470;-75
2024/04/15 01:09:01;;;;;;;11.43;4.00;;;8.00;78.60;;;;;;4767461;30;20060;-75
2024/04/15 01:11:27;;;;;;;9.55;3.58;;;8.00;78.60;;;;;;4749889;30;20060;-75
2024/04/15 01:13:53;;;;;;;10.45;3.80;;;8.00;78.70;;;;;;4742441;30;20059;-75
2024/04/15 01:16:18;;;;;;;11.27;3.47;;;7.90;78.80;;;;;;4766737;30;20531;-74
2024/04/15 01:18:44;;;;;;;12.68;4.30;;;7.80;78.80;;;;;;4762430;30;20082;-75
2024/04/15 01:21:09;;;;;;;11.10;4.07;;;8.20;78.90;;;;;;4764120;30;20087;-74
2024/04/15 01:23:40;;;;;;;13.65;4.10;;;7.70;78.70;;;;;;4750324;30;20063;-74
2024/04/15 01:26:06;;;;;;;13.13;5.07;;;7.70;78.70;;;;;;4752428;30;20055;-74
2024/04/15 01:28:31;;;;;;;11.68;4.00;;;7.60;78.70;;;;;;4757033;30;20401;-73
2024/04/15 01:30:57;;;;;;;14.32;4.38;;;7.60;78.70;;;;;;4738820;30;20151;-74
2024/04/15 01:33:23;;;;;;;12.90;4.22;;;7.60;78.80;;;;;;4742679;30;20113;-75
2024/04/15 01:35:48;;;;;;;14.48;4.50;;;7.50;78.80;;;;;;4766090;30;20466;-75
2024/04/15 01:38:14;;;;;;;18.00;4.70;;;7.50;78.90;;;;;;4757411;30;20424;-75
2024/04/15 01:40:40;;;;;;;18.80;4.47;;;7.50;78.90;;;;;;4742075;30;20050;-74
2024/04/15 01:43:05;;;;;;;15.77;4.38;;;7.40;78.90;;;;;;4757115;30;20044;-74
2024/04/15 01:45:31;;;;;;;11.98;4.22;;;7.40;79.00;;;;;;4753416;30;20127;-75
2024/04/15 01:47:58;;;;;;;12.90;4.10;;;7.40;79.00;;;;;;4767352;30;20117;-74
2024/04/15 01:50:23;;;;;;;13.80;4.95;;;7.40;78.90;;;;;;4764194;30;20059;-75
2024/04/15 01:52:49;;;;;;;12.80;4.32;;;7.40;78.90;;;;;;4767074;30;20222;-74
2024/04/15 01:55:15;;;;;;;10.63;4.38;;;7.40;78.90;;;;;;4767248;30;20478;-75
2024/04/15 01:57:42;;;;;;;10.55;4.13;;;7.30;78.80;;;;;;4751984;30;20408;-74
2024/04/15 02:00:08;;;;;;;12.80;4.43;;;7.20;78.80;;;;;;4751194;30;20063;-75
2024/04/15 02:02:34;;;;;;;9.70;4.07;;;7.20;78.80;;;;;;4749280;30;20055;-74
2024/04/15 02:04:59;;;;;;;12.85;4.20;;;7.10;78.80;;;;;;4749421;30;20056;-75
2024/04/15 02:07:26;;;;;;;17.25;4.88;;;7.10;79.10;;;;;;4757200;30;20200;-74
2024/04/15 02:09:52;;;;;;;16.65;5.00;;;7.10;79.10;;;;;;4764182;30;20113;-74
2024/04/15 02:12:17;;;;;;;17.23;5.20;;;7.00;79.30;;;;;;4757790;30;20078;-74
2024/04/15 02:14:43;;;;;;;14.45;4.55;;;7.00;79.40;;;;;;4763840;30;20489;-75
2024/04/15 02:17:09;;;;;;;12.93;4.55;;;7.00;79.20;;;;;;4742097;30;20085;-75
2024/04/15 02:19:34;;;;;;;12.50;5.03;;;7.00;79.10;;;;;;4758629;30;20528;-75
2024/04/15 02:22:00;;;;;;;14.73;4.70;;;7.00;79.20;;;;;;4754343;30;20063;-75
2024/04/15 02:24:27;;;;;;;14.93;4.93;;;7.00;79.30;;;;;;4755811;30;20052;-75
2024/04/15 02:26:54;;;;;;;13.50;4.22;;;7.00;79.30;;;;;;4742974;30;20393;-75
2024/04/15 02:29:19;;;;;;;11.80;4.47;;;7.00;79.40;;;;;;4766483;30;20055;-75
2024/04/15 02:31:45;;;;;;;13.02;4.80;;;7.00;79.70;;;;;;4766962;30;20454;-74
2024/04/15 02:34:11;;;;;;;13.82;4.72;;;7.00;79.90;;;;;;4766784;30;20120;-74
2024/04/15 02:36:36;;;;;;;13.45;4.70;;;7.00;79.90;;;;;;4761998;30;20052;-74
2024/04/15 02:39:02;;;;;;;17.38;5.07;;;7.00;79.90;;;;;;4765710;30;20059;-74
2024/04/15 02:41:28;;;;;;;15.13;5.22;;;6.90;79.80;;;;;;4763021;30;20051;-75
2024/04/15 02:43:53;;;;;;;16.85;4.68;;;6.80;79.90;;;;;;4766230;30;20086;-75
2024/04/15 02:46:19;;;;;;;13.38;4.72;;;6.90;79.90;;;;;;4751696;30;20052;-74
2024/04/15 02:48:44;;;;;;;15.95;5.05;;;6.90;79.70;;;;;;4766376;30;20059;-74
2024/04/15 02:51:10;;;;;;;11.77;4.47;;;7.00;79.60;;;;;;4766209;30;20103;-74
2024/04/15 02:53:36;;;;;;;12.18;4.43;;;7.00;79.50;;;;;;4759746;30;20064;-75
2024/04/15 02:56:01;;;;;;;16.27;4.93;;;7.00;79.50;;;;;;4760144;30;20058;-74
2024/04/15 02:58:27;;;;;;;10.02;4.18;;;7.00;79.60;;;;;;4765785;30;20055;-74
2024/04/15 03:00:52;;;;;;;16.30;4.03;;;7.10;79.50;;;;;;4766499;30;20457;-75
2024/04/15 03:03:18;;;;;;;11.15;4.60;;;7.10;79.40;;;;;;4762626;30;20060;-75
2024/04/15 03:05:45;;;;;;;18.00;4.90;;;7.10;79.40;;;;;;4757510;30;20112;-75
2024/04/15 03:08:11;;;;;;;11.95;4.50;;;7.10;79.50;;;;;;4749259;30;20052;-75
2024/04/15 03:10:37;;;;;;;12.65;4.78;;;7.10;79.60;;;;;;4765720;30;20495;-75
2024/04/15 03:13:03;;;;;;;9.25;4.10;;;7.10;79.50;;;;;;4765560;30;20067;-75
2024/04/15 03:15:29;;;;;;;11.75;4.05;;;7.10;79.40;;;;;;4765993;30;20048;-75
2024/04/15 03:17:55;;;;;;;9.85;4.35;;;7.20;79.40;;;;;;4766393;30;20504;-75
2024/04/15 03:20:22;;;;;;;12.73;4.50;;;7.10;79.30;;;;;;4765849;30;20067;-74
2024/04/15 03:22:51;;;;;;;10.73;4.15;;;7.20;79.40;;;;;;4751202;30;20089;-74
2024/04/15 03:25:21;;;;;;;15.30;4.88;;;7.10;79.30;;;;;;4758834;30;20055;-75
2024/04/15 03:27:50;;;;;;;10.55;4.80;;;7.00;79.30;;;;;;4764011;30;20095;-75
2024/04/15 03:30:16;;;;;;;13.80;4.10;;;7.00;79.30;;;;;;4752062;30;20504;-75
2024/04/15 03:32:42;;;;;;;14.95;4.60;;;6.90;79.30;;;;;;4769230;30;20259;-75
2024/04/15 03:35:14;;;;;;;13.93;4.68;;;6.90;79.40;;;;;;4759096;30;20060;-75
2024/04/15 03:37:41;;;;;;;11.80;4.35;;;6.90;79.40;;;;;;4759584;30;20065;-75
2024/04/15 03:40:07;;;;;;;10.55;4.50;;;6.90;79.50;;;;;;4754656;30;20051;-75
2024/04/15 03:42:33;;;;;;;12.38;4.75;;;6.90;79.50;;;;;;4763782;30;20067;-75
2024/04/15 03:44:58;;;;;;;11.25;4.07;;;6.90;79.50;;;;;;4769675;30;20056;-75
2024/04/15 03:47:24;;;;;;;12.15;4.95;;;6.90;79.60;;;;;;4748997;30;20132;-75
2024/04/15 03:49:50;;;;;;;14.07;5.38;;;7.00;79.70;;;;;;4759100;30;20059;-74
2024/04/15 03:52:15;;;;;;;10.98;4.70;;;7.00;79.50;;;;;;4769141;30;20147;-74
2024/04/15 03:54:41;;;;;;;9.50;4.10;;;6.90;79.60;;;;;;4782087;30;20079;-74
2024/04/15 03:57:07;;;;;;;12.07;4.40;;;6.90;79.50;;;;;;4754201;30;20090;-75
2024/04/15 03:59:32;;;;;;;13.02;4.43;;;6.90;79.50;;;;;;4754417;30;20060;-75
2024/04/15 04:01:58;;;;;;;10.15;4.18;;;6.90;79.60;;;;;;4769266;30;20102;-75
2024/04/15 04:04:24;;;;;;;12.48;4.55;;;6.80;79.60;;;;;;4769216;30;20068;-75
2024/04/15 04:06:49;;;;;;;8.68;4.13;;;6.90;79.60;;;;;;4751229;30;20052;-74
2024/04/15 04:09:15;;;;;;;11.23;4.55;;;6.90;79.70;;;;;;4747828;30;20113;-74
2024/04/15 04:11:41;;;;;;;11.73;5.13;;;6.90;79.70;;;;;;4770331;30;20527;-75
2024/04/15 04:14:06;;;;;;;11.43;4.40;;;6.90;79.70;;;;;;4768066;30;20147;-75
2024/04/15 04:16:32;;;;;;;11.77;4.22;;;6.90;79.80;;;;;;4763771;30;20079;-75
2024/04/15 04:18:58;;;;;;;11.95;4.50;;;6.90;79.80;;;;;;4762705;30;20100;-75
2024/04/15 04:21:23;;;;;;;13.63;5.00;;;6.90;79.80;;;;;;4763550;30;20139;-75
2024/04/15 04:23:49;;;;;;;11.48;4.20;;;6.80;79.80;;;;;;4761852;30;20051;-74
2024/04/15 04:26:15;;;;;;;8.50;3.85;;;6.80;79.80;;;;;;4767970;30;20048;-75
2024/04/15 04:28:41;;;;;;;14.93;4.32;;;6.80;79.80;;;;;;4768224;30;20074;-75
2024/04/15 04:31:07;;;;;;;13.32;4.80;;;6.90;79.90;;;;;;4754497;30;20051;-75
2024/04/15 04:33:33;;;;;;;12.45;4.15;;;6.80;79.80;;;;;;4753730;30;20427;-75
2024/04/15 04:36:00;;;;;;;12.32;4.60;;;6.80;79.80;;;;;;4768336;30;20055;-75
2024/04/15 04:38:26;;;;;;;10.90;4.95;;;6.80;79.80;;;;;;4768480;30;20043;-75
2024/04/15 04:40:59;;;;;;;11.65;4.70;;;6.80;79.80;;;;;;4768427;30;20059;-75
2024/04/15 04:43:25;;;;;;;8.30;4.60;;;6.90;79.90;;;;;;4767148;30;20091;-75
2024/04/15 04:45:52;;;;;;;11.15;4.90;;;6.90;79.80;;;;;;4769488;30;20518;-75
2024/04/15 04:48:18;;;;;;;11.55;5.25;;;6.90;79.90;;;;;;4766066;30;20058;-76
2024/04/15 04:50:44;;;;;;;13.13;7.07;;;7.00;79.90;;;;;;4753627;30;20059;-75
2024/04/15 04:53:10;;;;;;;14.32;6.68;;;7.00;79.90;;;;;;4757971;30;20059;-76
2024/04/15 04:55:37;;;;;;;13.43;6.57;;;7.20;80.00;;;;;;4767367;30;20485;-76
2024/04/15 04:58:08;;;;;;;16.85;6.10;;;7.20;80.00;;;;;;4766508;30;20117;-76
2024/04/15 05:00:34;;;;;;;13.02;5.30;;;7.30;80.00;;;;;;4766822;30;20143;-71
2024/04/15 05:02:59;;;;;;;14.20;5.90;;;7.30;79.90;;;;;;4769379;30;20126;-71
2024/04/15 05:05:25;;;;;;;15.98;4.68;;;7.30;79.90;;;;;;4763707;30;20048;-70
2024/04/15 05:07:51;;;;;;;12.32;4.82;;;7.40;79.90;;;;;;4750824;30;20467;-70
2024/04/15 05:10:16;;;;;;;13.20;5.45;;;7.40;79.90;;;;;;4769229;30;20059;-70
2024/04/15 05:12:42;;;;;;;13.43;5.00;;;7.30;79.90;;;;;;4767944;30;20475;-70
2024/04/15 05:15:08;;;;;;;23.02;6.22;;;7.40;80.00;;;;;;4773924;30;20400;-71
2024/04/15 05:17:34;;;;;;;12.13;5.45;;;7.40;80.00;;;;;;4766508;30;20091;-71
2024/04/15 05:20:00;;;;;;;16.23;5.55;;;7.40;80.00;;;;;;4764237;30;20091;-71
2024/04/15 05:22:26;;;;;;;17.05;5.43;;;7.50;80.10;;;;;;4764105;30;20501;-72
2024/04/15 05:24:53;;;;;;;15.13;5.95;;;7.40;80.10;;;;;;4766460;30;20048;-71
2024/04/15 05:27:19;;;;;;;17.70;6.03;;;7.40;80.20;;;;;;4760807;30;20051;-72
2024/04/15 05:29:45;;;;;;;15.75;6.03;;;7.40;80.20;;;;;;4767398;30;20066;-71
2024/04/15 05:32:10;;;;;;;12.80;5.93;;;7.50;80.30;;;;;;4760136;30;20066;-71
2024/04/15 05:34:37;;;;;;;16.83;6.18;;;7.40;80.30;;;;;;4755331;30;20059;-71
2024/04/15 05:37:05;;;;;;;15.25;6.68;;;7.40;80.30;;;;;;4776626;30;20055;-71
2024/04/15 05:39:31;;;;;;;13.73;6.05;;;7.40;80.30;;;;;;4767350;30;20060;-71
2024/04/15 05:41:57;;;;;;;12.82;5.72;;;7.40;80.40;;;;;;4752715;30;20047;-71
2024/04/15 05:44:22;;;;;;;15.95;6.53;;;7.40;80.40;;;;;;4753482;30;20055;-71
2024/04/15 05:46:49;;;;;;;12.98;6.30;;;7.40;80.50;;;;;;4761429;30;20091;-72
2024/04/15 05:49:15;;;;;;;18.05;6.75;;;7.50;80.60;;;;;;4749910;30;20510;-71
2024/04/15 05:51:41;;;;;;;15.73;7.35;;;7.50;80.60;;;;;;4760472;30;20050;-71
2024/04/15 05:54:07;;;;;;;15.27;7.05;;;7.50;80.70;;;;;;4761153;30;20056;-70
2024/04/15 05:56:32;;;;;;;16.50;7.32;;;7.60;80.90;;;;;;4766448;30;20200;-70
2024/04/15 05:58:58;;;;;;;17.08;7.07;;;7.70;80.90;;;;;;4766496;30;20067;-71
2024/04/15 06:01:24;;;;;;;15.52;7.57;;;7.80;80.90;;;;;;4766186;30;20060;-70
2024/04/15 06:03:49;;;;;;;14.82;7.97;;;7.80;80.90;;;;;;4764278;30;20059;-70
2024/04/15 06:06:15;;;;;;;14.50;7.32;;;7.90;81.00;;;;;;4772159;30;20105;-70
2024/04/15 06:08:41;;;;;;;18.33;7.55;;;8.00;81.00;;;;;;4773265;30;20046;-70
2024/04/15 06:11:07;;;;;;;18.45;7.72;;;8.10;81.10;;;;;;4758767;30;20059;-70
2024/04/15 06:13:32;;;;;;;18.70;7.57;;;8.20;81.10;;;;;;4742696;30;20122;-70
2024/04/15 06:15:58;;;;;;;15.57;7.63;;;8.30;81.10;;;;;;4776509;30;20047;-70
2024/04/15 06:18:23;;;;;;;21.48;8.90;;;8.30;81.00;;;;;;4778653;30;20090;-71
2024/04/15 06:20:49;;;;;;;18.50;7.85;;;8.40;81.00;;;;;;4770401;30;20126;-71
2024/04/15 06:23:15;;;;;;;15.45;8.00;;;8.50;81.00;;;;;;4768578;30;20110;-72
2024/04/15 06:25:41;;;;;;;16.80;8.15;;;8.40;80.90;;;;;;4766077;30;20101;-71
2024/04/15 06:28:06;;;;;;;20.27;8.95;;;8.50;80.90;;;;;;4763257;30;20047;-71
2024/04/15 06:30:32;;;;;;;21.30;7.60;;;8.60;80.90;;;;;;4758303;30;20060;-71
2024/04/15 06:32:57;;;;;;;21.85;8.73;;;8.60;80.90;;;;;;4763103;30;20113;-71
2024/04/15 06:35:23;;;;;;;16.52;7.20;;;8.60;80.90;;;;;;4765634;30;20052;-71
2024/04/15 06:37:49;;;;;;;19.38;8.95;;;8.70;80.90;;;;;;4766155;30;20405;-71
2024/04/15 06:40:15;;;;;;;17.90;7.82;;;8.70;80.90;;;;;;4759939;30;20522;-71
2024/04/15 06:42:40;;;;;;;13.88;7.40;;;8.70;80.90;;;;;;4753662;30;20056;-71
2024/04/15 06:45:06;;;;;;;21.75;8.18;;;8.70;80.80;;;;;;4765068;30;20093;-71
2024/04/15 06:47:31;;;;;;;22.55;9.00;;;8.60;80.70;;;;;;4766076;30;20408;-71
2024/04/15 06:49:57;;;;;;;15.82;8.63;;;8.70;80.80;;;;;;4765886;30;20059;-72
2024/04/15 06:52:23;;;;;;;18.38;8.18;;;8.80;80.90;;;;;;4763187;30;20117;-71
2024/04/15 06:54:48;;;;;;;20.20;8.35;;;8.90;80.90;;;;;;4766539;30;20067;-71
2024/04/15 06:57:14;;;;;;;16.35;7.78;;;9.00;80.90;;;;;;4764029;30;20064;-70
2024/04/15 06:59:40;;;;;;;17.17;7.68;;;8.90;80.80;;;;;;4760891;30;20213;-70
2024/04/15 07:02:07;;;;;;;21.80;8.10;;;9.00;80.70;;;;;;4764895;30;20411;-70
2024/04/15 07:04:33;;;;;;;18.95;9.05;;;9.00;80.70;;;;;;4759402;30;20059;-71
2024/04/15 07:06:58;;;;;;;17.55;8.00;;;9.10;80.80;;;;;;4764543;30;20052;-71
2024/04/15 07:09:24;;;;;;;18.17;8.27;;;9.20;80.90;;;;;;4744790;30;20052;-71
2024/04/15 07:11:49;;;;;;;20.45;8.35;;;9.30;80.80;;;;;;4765119;30;20056;-72
2024/04/15 07:14:15;;;;;;;19.20;7.95;;;9.40;80.70;;;;;;4749165;30;20518;-72
2024/04/15 07:16:41;;;;;;;21.05;7.65;;;9.40;80.60;;;;;;4761578;30;20325;-72
2024/04/15 07:19:07;;;;;;;17.85;7.28;;;9.40;80.50;;;;;;4742549;30;20067;-71
2024/04/15 07:21:32;;;;;;;18.38;7.75;;;9.40;80.30;;;;;;4743738;30;20156;-71
2024/04/15 07:23:58;;;;;;;21.92;9.00;;;9.30;80.20;;;;;;4752832;30;20068;-71
2024/04/15 07:26:23;;;;;;;19.90;7.90;;;9.30;80.30;;;;;;4748372;30;20709;-71
2024/04/15 07:28:52;;;;;;;19.10;8.38;;;9.30;80.30;;;;;;4748024;30;20500;-71
2024/04/15 07:31:18;;;;;;;19.10;8.43;;;9.30;80.30;;;;;;4748301;30;20474;-72
2024/04/15 07:33:43;;;;;;;16.70;8.80;;;9.30;80.30;;;;;;4765059;30;20067;-71
2024/04/15 07:36:09;;;;;;;22.52;8.23;;;9.30;80.40;;;;;;4766347;30;20047;-71
2024/04/15 07:38:34;;;;;;;18.58;8.95;;;9.50;80.60;;;;;;4760790;30;20052;-71
2024/04/15 07:41:00;;;;;;;20.98;9.50;;;9.80;80.80;;;;;;4761817;30;20094;-72
2024/04/15 07:43:29;;;;;;;19.77;8.18;;;10.00;80.90;;;;;;4750444;30;20065;-72
2024/04/15 07:45:54;;;;;;;18.98;9.00;;;10.20;80.60;;;;;;4765197;30;20048;-71
2024/04/15 07:48:20;;;;;;;21.25;9.43;;;10.20;80.30;;;;;;4765844;30;20044;-72
2024/04/15 07:50:46;;;;;;;21.23;9.65;;;10.20;80.20;;;;;;4757210;30;20119;-71
2024/04/15 07:53:12;;;;;;;19.42;9.27;;;10.20;80.10;;;;;;4759786;30;20056;-72
2024/04/15 07:55:37;;;;;;;20.15;10.23;;;10.20;80.10;;;;;;4758229;30;20084;-71
2024/04/15 07:58:03;;;;;;;19.15;9.88;;;10.20;80.10;;;;;;4740960;30;20075;-71
2024/04/15 08:00:29;;;;;;;19.73;10.30;;;10.30;80.10;;;;;;4760840;30;20060;-72
2024/04/15 08:02:54;;;;;;;20.88;9.50;;;10.40;80.10;;;;;;4762522;30;20415;-71
2024/04/15 08:05:20;;;;;;;21.85;10.23;;;10.50;80.10;;;;;;4756753;30;20083;-71
2024/04/15 08:07:46;;;;;;;27.42;10.15;;;10.60;79.90;;;;;;4747016;30;20118;-72
2024/04/15 08:10:12;;;;;;;18.98;9.75;;;10.60;79.80;;;;;;4762988;30;20503;-73
2024/04/15 08:12:37;;;;;;;22.73;9.85;;;10.60;79.80;;;;;;4762397;30;20067;-72
2024/04/15 08:15:03;;;;;;;23.00;10.32;;;10.70;79.80;;;;;;4742184;30;20118;-73
2024/04/15 08:17:29;;;;;;;23.02;10.95;;;10.60;79.80;;;;;;4763436;30;20213;-72
2024/04/15 08:19:55;;;;;;;21.65;11.60;;;10.60;79.70;;;;;;4766700;30;20139;-72
2024/04/15 08:22:22;;;;;;;28.08;11.75;;;10.60;79.60;;;;;;4763397;30;20094;-72
2024/04/15 08:24:48;;;;;;;20.85;12.65;;;10.60;79.60;;;;;;4753002;30;20052;-72
2024/04/15 08:27:14;;;;;;;18.88;10.32;;;10.60;79.70;;;;;;4766168;30;20570;-74
2024/04/15 08:29:40;;;;;;;21.92;11.68;;;10.60;79.60;;;;;;4767269;30;20322;-80
2024/04/15 08:32:05;;;;;;;22.10;11.90;;;10.60;79.60;;;;;;4766555;30;20135;-80
2024/04/15 08:34:31;;;;;;;21.80;10.80;;;10.70;79.50;;;;;;4755838;30;20508;-76
2024/04/15 08:36:57;;;;;;;22.52;11.13;;;10.70;79.40;;;;;;4766421;30;20063;-77
2024/04/15 08:39:22;;;;;;;21.52;10.45;;;10.70;79.10;;;;;;4758201;30;20060;-79
2024/04/15 08:41:53;;;;;;;20.83;9.63;;;10.70;79.30;;;;;;4751222;30;20052;-80
2024/04/15 08:44:24;;;;;;;15.95;8.30;;;10.70;79.10;;;;;;4766315;30;20385;-79
2024/04/15 08:46:52;;;;;;;15.88;8.32;;;10.80;79.10;;;;;;4767422;30;20047;-79
2024/04/15 08:50:12;;;;;;;;;;;;;;;;;;;;;
2024/04/15 08:53:32;;;;;;;18.05;8.38;;;11.00;78.70;;;;;;4762859;30;20271;-79
2024/04/15 08:57:23;;;;;;;15.52;6.40;;;11.00;78.40;;;;;;4700830;30;20430;-79
2024/04/15 14:50:46;;;;;;;;;;;5.80;82.60;;;;;;4784255;29;20473;-80
2024/04/15 14:53:20;;;;;;;3.78;2.05;;;5.80;83.00;;;;;;4729747;30;19978;-80
2024/04/15 14:55:54;;;;;;;8.10;2.28;;;5.90;83.20;;;;;;4729535;30;20067;-81
2024/04/15 14:58:23;;;;;;;4.70;2.08;;;5.90;83.40;;;;;;4705989;30;20151;-81
2024/04/15 15:00:49;;;;;;;4.80;2.10;;;5.90;83.40;;;;;;4729112;30;20056;-81
2024/04/15 15:03:14;;;;;;;8.93;2.30;;;5.90;83.60;;;;;;4699269;30;20071;-80
2024/04/15 15:05:40;;;;;;;7.15;3.00;;;5.90;83.60;;;;;;4713823;30;20060;-78
2024/04/15 15:08:08;;;;;;;4.32;2.88;;;5.90;83.70;;;;;;4707565;30;20151;-78
2024/04/15 15:10:33;;;;;;;5.45;3.00;;;5.80;83.80;;;;;;4708258;30;20420;-78
2024/04/15 15:13:00;;;;;;;6.20;2.65;;;5.80;83.90;;;;;;4697358;30;20061;-75
2024/04/15 15:15:26;;;;;;;5.20;2.45;;;5.70;84.00;;;;;;4712750;30;20114;-75
2024/04/15 15:17:51;;;;;;;5.40;2.78;;;5.80;84.10;;;;;;4713565;30;20071;-74
2024/04/15 15:20:17;;;;;;;6.25;2.90;;;5.90;84.30;;;;;;4719572;30;20051;-74
2024/04/15 15:22:46;;;;;;;6.60;3.60;;;5.90;84.40;;;;;;4728676;30;20127;-72
2024/04/15 15:25:12;;;;;;;5.82;3.38;;;5.80;84.50;;;;;;4722265;30;20626;-73
2024/04/15 15:27:38;;;;;;;5.50;3.40;;;5.80;84.50;;;;;;4703487;30;20061;-74
2024/04/15 15:30:04;;;;;;;8.13;4.07;;;5.90;84.70;;;;;;4716480;30;20064;-74
2024/04/15 15:32:30;;;;;;;7.97;4.05;;;5.80;84.70;;;;;;4719509;30;20053;-74
2024/04/15 15:34:55;;;;;;;8.20;3.83;;;5.80;84.80;;;;;;4719228;30;20066;-73
2024/04/15 15:37:21;;;;;;;15.75;3.50;;;5.90;84.90;;;;;;4716650;30;20053;-72
2024/04/15 15:39:47;;;;;;;6.13;3.58;;;5.90;84.90;;;;;;4718531;30;20133;-74
2024/04/15 15:42:12;;;;;;;5.25;3.53;;;6.00;85.00;;;;;;4685170;30;20075;-73
2024/04/15 15:44:38;;;;;;;7.10;3.22;;;6.20;85.20;;;;;;4717601;30;20056;-72
2024/04/15 15:47:05;;;;;;;6.32;3.20;;;6.30;85.40;;;;;;4721400;30;20143;-74
2024/04/15 15:49:32;;;;;;;9.82;3.60;;;6.30;85.30;;;;;;4702019;30;20056;-72
2024/04/15 15:52:04;;;;;;;10.95;3.47;;;6.40;85.30;;;;;;4739181;30;20056;-72
2024/04/15 15:54:30;;;;;;;8.98;3.72;;;6.40;85.30;;;;;;4744507;30;20122;-72
2024/04/15 15:56:59;;;;;;;7.55;3.42;;;6.40;85.30;;;;;;4747080;30;20056;-73
2024/04/15 15:59:25;;;;;;;7.68;3.67;;;6.30;85.30;;;;;;4749420;30;20063;-73
2024/04/15 16:01:51;;;;;;;6.63;3.95;;;6.30;85.30;;;;;;4749730;30;20064;-73
2024/04/15 16:04:17;;;;;;;7.55;3.28;;;6.30;85.30;;;;;;4740362;30;20064;-73
2024/04/15 16:06:43;;;;;;;5.25;3.00;;;6.30;85.30;;;;;;4747994;30;20139;-73
2024/04/15 16:09:09;;;;;;;6.78;3.20;;;6.30;85.40;;;;;;4732127;30;20069;-73
2024/04/15 16:11:40;;;;;;;5.68;3.10;;;6.40;85.50;;;;;;4747905;30;20178;-72
2024/04/15 16:14:06;;;;;;;6.60;2.75;;;6.50;85.50;;;;;;4748240;30;20048;-73
2024/04/15 16:16:35;;;;;;;5.07;2.92;;;6.60;85.60;;;;;;4749638;30;20330;-73
2024/04/15 16:19:01;;;;;;;7.10;2.72;;;6.60;85.50;;;;;;4748820;30;20135;-73
2024/04/15 16:21:27;;;;;;;6.22;2.30;;;6.60;85.30;;;;;;4746335;30;20139;-72
2024/04/15 16:23:53;;;;;;;6.38;2.55;;;6.60;85.10;;;;;;4745664;30;20052;-72
2024/04/15 16:26:19;;;;;;;8.65;2.70;;;6.60;85.00;;;;;;4748439;30;20086;-72
2024/04/15 16:28:47;;;;;;;10.95;2.88;;;6.60;85.00;;;;;;4746905;30;20064;-69
2024/04/15 16:31:14;;;;;;;5.35;2.15;;;6.60;85.10;;;;;;4726754;30;20060;-70
2024/04/15 16:33:40;;;;;;;7.13;2.22;;;6.50;85.00;;;;;;4747615;30;20068;-70
2024/04/15 16:36:08;;;;;;;5.80;2.15;;;6.40;84.90;;;;;;4746875;30;20059;-71
2024/04/15 16:38:34;;;;;;;5.13;2.05;;;6.30;84.70;;;;;;4748516;30;20141;-71
2024/04/15 16:40:59;;;;;;;6.10;1.90;;;6.10;84.50;;;;;;4748018;30;20063;-75
2024/04/15 16:43:26;;;;;;;4.43;1.95;;;6.00;84.40;;;;;;4745897;30;20448;-75
2024/04/15 16:45:52;;;;;;;4.75;1.90;;;5.80;84.30;;;;;;4746756;30;20094;-80
2024/04/15 16:48:20;;;;;;;3.05;1.70;;;5.90;84.40;;;;;;4747475;30;20788;-80
2024/04/15 16:50:46;;;;;;;3.92;1.85;;;5.60;84.30;;;;;;4746492;30;20052;-82
2024/04/15 16:53:12;;;;;;;4.05;1.83;;;5.60;84.40;;;;;;4747784;30;20070;-83
2024/04/15 16:55:37;;;;;;;3.85;1.80;;;5.60;84.50;;;;;;4732569;30;20068;-83
2024/04/15 16:58:05;;;;;;;3.65;1.90;;;5.60;84.60;;;;;;4746572;30;20134;-86
2024/04/15 17:00:32;;;;;;;5.07;2.00;;;5.70;84.70;;;;;;4747552;30;20056;-85
2024/04/15 17:02:57;;;;;;;3.90;1.90;;;5.70;84.70;;;;;;4745149;30;20056;-87
2024/04/15 17:05:23;;;;;;;4.47;1.90;;;5.70;84.70;;;;;;4723338;30;20127;-85
2024/04/15 17:07:50;;;;;;;6.75;1.80;;;5.80;84.90;;;;;;4747020;30;20556;-85
2024/04/15 17:10:16;;;;;;;3.80;1.80;;;5.80;84.90;;;;;;4751623;30;20490;-85
2024/04/15 17:12:42;;;;;;;6.50;2.00;;;5.90;85.00;;;;;;4749890;30;20060;-84
2024/04/15 17:15:12;;;;;;;4.85;2.20;;;6.00;85.00;;;;;;4748404;30;20068;-84
2024/04/15 17:17:40;;;;;;;4.50;2.10;;;6.10;85.10;;;;;;4747551;30;20485;-82
2024/04/15 17:20:06;;;;;;;7.43;2.10;;;6.10;85.10;;;;;;4748197;30;20056;-83
2024/04/15 17:22:32;;;;;;;7.20;2.35;;;6.10;84.90;;;;;;4743908;30;20072;-84
2024/04/15 17:24:57;;;;;;;11.50;2.50;;;6.20;84.90;;;;;;4747707;30;20055;-82
2024/04/15 17:27:24;;;;;;;6.22;2.10;;;6.30;84.90;;;;;;4732555;30;20536;-82
2024/04/15 17:29:49;;;;;;;9.65;3.08;;;6.20;84.90;;;;;;4747750;30;20094;-77
2024/04/15 17:32:16;;;;;;;6.13;2.00;;;6.20;84.90;;;;;;4727328;30;20364;-84
2024/04/15 17:34:42;;;;;;;5.45;2.15;;;6.20;84.80;;;;;;4747387;30;20067;-83
2024/04/15 17:37:11;;;;;;;4.47;2.05;;;6.20;84.80;;;;;;4738523;30;20167;-83
2024/04/15 17:39:36;;;;;;;11.07;2.30;;;6.20;84.80;;;;;;4747643;30;20121;-83
2024/04/15 17:42:02;;;;;;;5.43;2.30;;;6.10;84.80;;;;;;4732624;30;20159;-84
2024/04/15 17:44:28;;;;;;;11.93;3.13;;;6.10;84.80;;;;;;4747429;30;20068;-83
2024/04/15 17:46:53;;;;;;;11.23;3.25;;;6.10;84.90;;;;;;4747183;30;20105;-83
2024/04/15 17:49:19;;;;;;;12.52;2.63;;;6.10;85.00;;;;;;4732714;30;20568;-83
2024/04/15 17:51:45;;;;;;;7.95;3.08;;;6.10;85.00;;;;;;4731299;30;20071;-81
2024/04/15 17:54:11;;;;;;;11.70;2.85;;;6.10;85.10;;;;;;4703478;30;20445;-83
2024/04/15 17:56:38;;;;;;;12.50;2.92;;;6.20;85.20;;;;;;4727636;30;20106;-84
2024/04/15 17:59:04;;;;;;;12.73;3.70;;;6.30;85.20;;;;;;4713893;30;20070;-84
2024/04/15 18:01:30;;;;;;;15.23;4.35;;;6.30;85.10;;;;;;4715283;30;20577;-82
2024/04/15 18:03:55;;;;;;;7.15;2.33;;;6.30;85.00;;;;;;4715203;30;20139;-83
2024/04/15 18:06:21;;;;;;;13.52;3.30;;;6.20;84.80;;;;;;4720560;30;20048;-84
2024/04/15 18:08:47;;;;;;;8.13;2.47;;;6.20;84.60;;;;;;4714714;30;20056;-85
2024/04/15 18:11:12;;;;;;;15.35;3.58;;;6.20;84.60;;;;;;4715503;30;20052;-85
2024/04/15 18:13:38;;;;;;;12.77;2.95;;;6.20;84.50;;;;;;4713108;30;20505;-84
2024/04/15 18:16:05;;;;;;;15.57;3.47;;;6.20;84.50;;;;;;4716625;30;20060;-84
2024/04/15 18:18:30;;;;;;;13.20;3.35;;;6.20;84.30;;;;;;4716431;30;20056;-86
2024/04/15 18:20:57;;;;;;;11.75;2.90;;;6.10;84.20;;;;;;4715762;30;20063;-86
2024/04/15 18:23:23;;;;;;;10.68;2.47;;;6.10;84.20;;;;;;4716251;30;20457;-84
2024/04/15 18:25:49;;;;;;;12.07;2.90;;;6.10;84.10;;;;;;4715899;30;20135;-84
2024/04/15 18:28:14;;;;;;;11.00;2.90;;;6.10;84.00;;;;;;4717550;30;20130;-85
2024/04/15 18:30:40;;;;;;;10.80;3.17;;;6.00;83.70;;;;;;4716179;30;20105;-86
2024/04/15 18:33:06;;;;;;;10.00;2.80;;;6.00;83.60;;;;;;4714783;30;20071;-82
2024/04/15 18:35:32;;;;;;;14.93;3.33;;;6.00;83.40;;;;;;4714679;30;20056;-81
2024/04/15 18:37:58;;;;;;;9.07;2.83;;;6.00;83.40;;;;;;4715571;30;20057;-81